Wood Springs, Texas
Current Conditions -  °F | °C
As of 6:53 PM on Monday 24 Nov 2014 (Local Time) from KTYR Reporting Station
Clear Clear  
Wind Chill: 46°   Ceiling: Unl
Heat Index: 48°   Visibility: 10mi
Dew Point: 33°   Wind: 5mph
Humidity: 56%   Direction: 290°WNW
Pressure: 30.08"   Gusts: NA
Location:  32.5326°N, 95.4249°W
Report Text: KTYR 250053Z 29004KT 10SM CLR 09/01 A3008 RMK AO2 SLP187 T00890006
Loading
Personal Weather Stations






























Interactive Weather Map New forecast layout! Learn more

10-Day Weather Forecast

Advertisements
Track Severe Weather on mobile